createdAt,value
2022-08-26T00:06:35.769Z,22.1
2022-08-26T00:20:35.737Z,21.9
2022-08-26T00:35:49.589Z,21.8
2022-08-26T00:49:49.613Z,22.0
2022-08-26T01:03:50.287Z,21.9
2022-08-26T01:17:51.074Z,22.0
2022-08-26T01:35:10.094Z,22.4
2022-08-26T01:45:08.768Z,22.2
2022-08-26T01:50:05.853Z,22.0
2022-08-26T02:04:05.883Z,21.5
2022-08-26T02:07:57.881Z,21.4
2022-08-26T02:19:26.303Z,21.8
2022-08-26T02:33:26.371Z,21.3
2022-08-26T02:47:26.427Z,20.8
2022-08-26T03:01:26.862Z,21.4
2022-08-26T03:15:26.693Z,21.1
2022-08-26T03:29:26.780Z,20.4
2022-08-26T03:43:26.850Z,19.9
2022-08-26T03:57:26.870Z,19.9
2022-08-26T04:11:26.969Z,20.1
2022-08-26T04:26:27.037Z,19.7
2022-08-26T04:41:27.011Z,19.4
2022-08-26T04:56:27.045Z,19.6
2022-08-26T05:11:27.092Z,20.1
2022-08-26T05:26:27.097Z,20.7
2022-08-26T05:41:27.091Z,21.1
2022-08-26T05:56:27.122Z,21.4
2022-08-26T06:11:27.154Z,21.8
2022-08-26T06:26:27.167Z,23.3
2022-08-26T06:41:27.172Z,23.8
2022-08-26T06:56:27.272Z,24.0
2022-08-26T07:11:27.261Z,24.9
2022-08-26T07:26:27.284Z,26.4
2022-08-26T07:41:27.401Z,27.6
2022-08-26T07:56:27.368Z,29.6
2022-08-26T08:11:27.531Z,29.2
2022-08-26T08:26:27.894Z,29.8
2022-08-26T08:41:27.919Z,29.9
2022-08-26T08:56:27.934Z,31.3
2022-08-26T09:11:27.946Z,31.9
2022-08-26T09:27:27.977Z,32.8
2022-08-26T09:42:28.110Z,33.4
2022-08-26T09:57:28.120Z,32.7
2022-08-26T10:13:28.109Z,32.2
2022-08-26T10:29:28.262Z,32.7
2022-08-26T10:44:28.488Z,32.8
2022-08-26T11:00:28.575Z,33.4
2022-08-26T11:11:40.501Z,33.2
2022-08-26T11:26:55.776Z,32.8
2022-08-26T11:42:42.681Z,34.1
2022-08-26T11:58:40.190Z,33.9
2022-08-26T12:14:40.211Z,33.7
2022-08-26T12:30:40.208Z,34.4
2022-08-26T12:46:40.211Z,33.9
2022-08-26T13:01:40.448Z,35.1
2022-08-26T13:16:40.248Z,35.6
2022-08-26T13:31:40.314Z,35.9
2022-08-26T13:46:40.408Z,35.6
2022-08-26T14:01:40.288Z,35.5
2022-08-26T14:16:51.439Z,33.4
2022-08-26T14:31:40.381Z,35.1
2022-08-26T14:46:40.720Z,35.7
2022-08-26T15:01:40.824Z,37.5
2022-08-26T15:16:40.792Z,36.1
2022-08-26T15:31:40.926Z,34.6
2022-08-26T15:46:41.043Z,31.3
2022-08-26T16:02:41.016Z,31.7
2022-08-26T16:18:41.072Z,30.6
2022-08-26T16:34:47.063Z,30.1
2022-08-26T16:49:41.173Z,29.7
2022-08-26T17:04:41.172Z,28.9
2022-08-26T17:19:46.759Z,28.3
2022-08-26T17:34:41.209Z,27.5
2022-08-26T17:49:41.214Z,26.5
2022-08-26T18:05:41.234Z,26.1
2022-08-26T18:21:41.290Z,25.0
2022-08-26T18:36:41.324Z,24.4
2022-08-26T18:50:43.040Z,24.2
2022-08-26T19:04:41.452Z,23.8
2022-08-26T19:18:41.438Z,23.5
2022-08-26T19:32:41.394Z,23.2
2022-08-26T19:46:41.423Z,22.4
2022-08-26T20:00:41.411Z,21.9
2022-08-26T20:14:41.448Z,22.0
2022-08-26T20:28:41.462Z,22.0
2022-08-26T20:42:41.482Z,21.9
2022-08-26T20:56:41.515Z,21.9
2022-08-26T21:10:41.484Z,21.8
2022-08-26T21:24:41.531Z,21.6
2022-08-26T21:38:41.493Z,21.5
2022-08-26T21:52:41.525Z,21.0
2022-08-26T22:06:41.767Z,20.7
2022-08-26T22:20:41.685Z,20.4
2022-08-26T22:34:41.739Z,20.1
2022-08-26T22:48:41.702Z,20.3
2022-08-26T23:02:41.731Z,20.5
2022-08-26T23:16:41.806Z,20.4
2022-08-26T23:30:41.745Z,20.0
2022-08-26T23:44:41.774Z,20.2
2022-08-26T23:58:41.768Z,20.1
